Time;durP1;ratioP1;P1;durP2;ratioP2;P2;SDS_P1;SDS_P2;PMS_P1;PMS_P2;Temp;Humidity;BMP_temperature;BMP_pressure;BME280_temperature;BME280_humidity;BME280_pressure;Samples;Min_cycle;Max_cycle;Signal;HPM_P1;HPM_P2
2023/10/17 00:01:04;;;;;;;12.50;9.80;;;;;;;-0.19;100.00;97919.98;110129;1242;68811;-60
2023/10/17 00:03:45;;;;;;;16.70;10.30;;;;;;;-0.25;100.00;97919.95;110188;1243;69894;-60
2023/10/17 00:06:26;;;;;;;13.70;7.90;;;;;;;-0.33;100.00;97922.50;110156;1247;60465;-60
2023/10/17 00:09:00;;;;;;;8.60;6.70;;;;;;;-0.37;100.00;97922.93;110153;1243;60489;-60
2023/10/17 00:11:44;;;;;;;9.30;7.40;;;;;;;-0.39;100.00;97918.88;110147;1243;71557;-62
2023/10/17 00:14:15;;;;;;;11.30;8.50;;;;;;;-0.41;100.00;97920.80;110121;1243;69269;-61
2023/10/17 00:16:47;;;;;;;9.70;6.80;;;;;;;-0.43;100.00;97917.75;110112;1246;69907;-61
2023/10/17 00:19:42;;;;;;;12.40;7.60;;;;;;;-0.47;100.00;97916.14;110146;1243;60542;-62
2023/10/17 00:22:18;;;;;;;9.20;7.20;;;;;;;-0.52;100.00;97914.69;110155;1243;60537;-59
2023/10/17 00:25:08;;;;;;;10.10;7.00;;;;;;;-0.57;100.00;97910.84;110148;1244;72015;-59
2023/10/17 00:27:42;;;;;;;9.50;6.20;;;;;;;-0.60;100.00;97916.05;110138;1242;69201;-59
2023/10/17 00:30:21;;;;;;;9.80;6.40;;;;;;;-0.63;100.00;97911.65;109927;1245;69199;-60
2023/10/17 00:32:58;;;;;;;11.20;7.40;;;;;;;-0.66;100.00;97907.61;109980;1246;60550;-60
2023/10/17 00:35:36;;;;;;;10.40;8.10;;;;;;;-0.62;100.00;97904.45;110179;1244;60495;-60
2023/10/17 00:38:16;;;;;;;9.90;7.00;;;;;;;-0.59;100.00;97899.79;110179;1243;71389;-60
2023/10/17 00:40:57;;;;;;;8.30;6.70;;;;;;;-0.60;100.00;97896.36;109862;1245;69588;-60
2023/10/17 00:43:40;;;;;;;12.40;8.30;;;;;;;-0.60;100.00;97894.64;110148;1244;69315;-60
2023/10/17 00:46:26;;;;;;;11.40;7.30;;;;;;;-0.59;100.00;97895.31;110111;1240;60535;-60
2023/10/17 00:49:10;;;;;;;14.20;9.00;;;;;;;-0.58;100.00;97896.34;110138;1243;60446;-60
2023/10/17 00:51:45;;;;;;;11.90;7.40;;;;;;;-0.63;100.00;97894.18;109846;1243;71864;-60
2023/10/17 00:54:18;;;;;;;8.10;6.10;;;;;;;-0.69;100.00;97891.41;110102;1246;69217;-60
2023/10/17 00:56:50;;;;;;;12.40;8.80;;;;;;;-0.74;100.00;97887.92;110122;1243;67563;-60
2023/10/17 00:59:29;;;;;;;10.60;7.10;;;;;;;-0.83;100.00;97888.11;110142;1246;60486;-60
2023/10/17 01:02:29;;;;;;;9.40;6.20;;;;;;;-0.91;100.00;97888.42;110201;1241;60542;-60
2023/10/17 01:05:14;;;;;;;7.70;6.00;;;;;;;-0.95;100.00;97883.90;110220;1243;71783;-60
2023/10/17 01:07:50;;;;;;;12.20;7.80;;;;;;;-0.98;100.00;97882.91;110147;1243;69236;-60
2023/10/17 01:10:26;;;;;;;10.50;7.40;;;;;;;-1.00;100.00;97878.02;110160;1241;68560;-60
2023/10/17 01:13:06;;;;;;;10.50;7.40;;;;;;;-1.03;100.00;97879.06;110148;1245;60509;-59
2023/10/17 01:15:38;;;;;;;8.30;7.10;;;;;;;-1.04;100.00;97880.27;110178;1243;60535;-60
2023/10/17 01:18:09;;;;;;;8.40;6.10;;;;;;;-1.05;100.00;97879.11;110205;1243;72035;-60
2023/10/17 01:20:45;;;;;;;9.40;6.10;;;;;;;-1.03;100.00;97876.84;110179;1244;68368;-60
2023/10/17 01:23:24;;;;;;;;;;;;;;;-1.02;100.00;97874.94;110200;1241;68339;-60
2023/10/17 01:26:08;;;;;;;7.80;5.70;;;;;;;-1.02;100.00;97878.54;110136;1241;60554;-61
2023/10/17 01:28:54;;;;;;;5.90;4.50;;;;;;;-0.98;100.00;97875.05;110164;1242;60471;-61
2023/10/17 01:31:43;;;;;;;9.10;6.30;;;;;;;-0.98;100.00;97877.44;110198;1241;72286;-61
2023/10/17 01:34:18;;;;;;;6.50;4.70;;;;;;;-1.01;100.00;97880.93;110172;1245;69108;-61
2023/10/17 01:36:50;;;;;;;7.00;5.50;;;;;;;-1.06;100.00;97885.63;110175;1242;68821;-61
2023/10/17 01:39:25;;;;;;;6.40;4.70;;;;;;;-1.11;100.00;97885.20;110129;1241;60547;-60
2023/10/17 01:42:00;;;;;;;8.00;5.40;;;;;;;-1.11;100.00;97890.69;110176;1242;60562;-61
2023/10/17 01:44:34;;;;;;;7.20;5.50;;;;;;;-1.14;100.00;97894.67;110164;1242;71247;-61
2023/10/17 01:47:08;;;;;;;8.90;7.20;;;;;;;-1.15;100.00;97897.61;110094;1245;68114;-61
2023/10/17 01:49:46;;;;;;;11.60;7.90;;;;;;;-1.17;100.00;97905.34;110184;1243;69413;-60
2023/10/17 01:52:18;;;;;;;11.30;7.40;;;;;;;-1.24;100.00;97901.70;110135;1243;60540;-60
2023/10/17 01:54:55;;;;;;;12.30;6.20;;;;;;;-1.29;100.00;97898.38;110246;1243;60437;-61
2023/10/17 01:57:35;;;;;;;8.00;5.80;;;;;;;-1.34;100.00;97892.98;110195;1243;72039;-60
2023/10/17 02:03:18;;;;;;;6.40;5.10;;;;;;;-1.45;100.00;97897.80;109900;1246;69133;-61
2023/10/17 02:05:52;;;;;;;7.40;5.40;;;;;;;-1.48;100.00;97893.90;110164;1244;61010;-61
2023/10/17 02:08:32;;;;;;;6.30;5.10;;;;;;;-1.50;100.00;97894.80;110136;1244;60541;-61
2023/10/17 02:11:03;;;;;;;6.90;5.90;;;;;;;-1.52;100.00;97892.63;110142;1243;72261;-61
2023/10/17 02:13:35;;;;;;;6.70;4.70;;;;;;;-1.57;100.00;97894.91;110105;1242;67766;-61
2023/10/17 02:16:12;;;;;;;7.40;5.10;;;;;;;-1.57;100.00;97894.57;110149;1241;68548;-61
2023/10/17 02:18:48;;;;;;;6.50;4.70;;;;;;;-1.54;100.00;97898.61;110023;1246;60512;-61
2023/10/17 02:21:23;;;;;;;7.00;5.30;;;;;;;-1.56;100.00;97898.65;110065;1244;60547;-61
2023/10/17 02:24:01;;;;;;;8.00;5.80;;;;;;;-1.56;100.00;97896.61;110095;1244;71373;-60
2023/10/17 02:26:54;;;;;;;8.10;6.30;;;;;;;-1.55;100.00;97895.39;110137;1242;68431;-61
2023/10/17 02:29:26;;;;;;;8.50;6.20;;;;;;;-1.53;100.00;97896.21;110125;1243;69214;-61
2023/10/17 02:31:58;;;;;;;6.60;5.30;;;;;;;-1.54;100.00;97897.94;110079;1246;60538;-61
2023/10/17 02:34:30;;;;;;;8.50;5.90;;;;;;;-1.57;100.00;97899.54;109917;1246;60464;-60
2023/10/17 02:37:09;;;;;;;7.80;5.30;;;;;;;-1.61;100.00;97898.23;110132;1243;72336;-61
2023/10/17 02:39:42;;;;;;;6.10;5.20;;;;;;;-1.65;100.00;97899.34;110142;1242;68669;-61
2023/10/17 02:42:20;;;;;;;8.40;5.00;;;;;;;-1.70;100.00;97898.55;109932;1245;68981;-60
2023/10/17 02:44:55;;;;;;;6.50;4.50;;;;;;;-1.73;100.00;97898.24;110163;1244;60526;-61
2023/10/17 02:47:26;;;;;;;8.10;6.00;;;;;;;-1.74;100.00;97891.79;109999;1243;60543;-61
2023/10/17 02:50:01;;;;;;;8.50;5.60;;;;;;;-1.73;100.00;97894.50;110147;1245;71821;-61
2023/10/17 02:52:36;;;;;;;7.50;5.50;;;;;;;-1.72;100.00;97896.70;110147;1246;69279;-61
2023/10/17 02:55:12;;;;;;;8.40;5.40;;;;;;;-1.73;100.00;97896.05;110161;1241;69336;-61
2023/10/17 02:57:46;;;;;;;9.30;6.10;;;;;;;-1.71;100.00;97896.00;110145;1245;60469;-61
2023/10/17 03:00:33;;;;;;;7.60;5.60;;;;;;;-1.72;100.00;97895.66;109837;1243;60918;-61
2023/10/17 03:03:12;;;;;;;7.80;5.60;;;;;;;-1.73;100.00;97894.67;110095;1242;71418;-61
2023/10/17 03:05:50;;;;;;;6.10;5.30;;;;;;;-1.76;100.00;97896.92;110100;1245;69289;-61
2023/10/17 03:08:20;;;;;;;5.00;4.00;;;;;;;-1.79;100.00;97896.48;110141;1243;68546;-61
2023/10/17 03:10:56;;;;;;;10.40;6.30;;;;;;;-1.82;100.00;97897.02;110143;1243;60500;-61
2023/10/17 03:13:39;;;;;;;8.20;5.60;;;;;;;-1.82;100.00;97897.54;110172;1244;60486;-61
2023/10/17 03:16:23;;;;;;;5.90;4.70;;;;;;;-1.83;100.00;97897.73;110168;1243;72134;-61
2023/10/17 03:18:58;;;;;;;9.40;6.00;;;;;;;-1.79;100.00;97901.95;109894;1243;69840;-61
2023/10/17 03:21:34;;;;;;;7.60;6.00;;;;;;;-1.77;100.00;97908.23;110111;1241;69682;-61
2023/10/17 03:24:05;;;;;;;8.70;7.10;;;;;;;-1.77;100.00;97912.66;110179;1244;60548;-61
2023/10/17 03:26:54;;;;;;;9.30;6.10;;;;;;;-1.78;100.00;97907.23;109962;1245;60476;-60
2023/10/17 03:29:35;;;;;;;7.30;5.70;;;;;;;-1.79;100.00;97906.92;110094;1242;72181;-60
2023/10/17 03:32:10;;;;;;;6.80;5.10;;;;;;;-1.82;100.00;97908.83;110138;1244;69218;-61
2023/10/17 03:34:45;;;;;;;9.60;5.70;;;;;;;-1.86;100.00;97910.92;110118;1243;69257;-60
2023/10/17 03:40:15;;;;;;;6.60;5.10;;;;;;;-1.89;100.00;97907.05;110124;1244;60547;-61
2023/10/17 03:42:53;;;;;;;7.50;4.30;;;;;;;-1.92;100.00;97905.21;110120;1241;71466;-61
2023/10/17 03:45:26;;;;;;;9.90;6.00;;;;;;;-1.93;100.00;97906.95;110118;1244;68484;-61
2023/10/17 03:47:59;;;;;;;10.70;7.50;;;;;;;-1.92;100.00;97901.64;110139;1244;69208;-61
2023/10/17 03:53:16;;;;;;;7.40;5.00;;;;;;;-1.92;100.00;97900.78;110154;1243;60812;-61
2023/10/17 03:56:00;;;;;;;8.00;5.80;;;;;;;-1.91;100.00;97896.66;110135;1244;71729;-61
2023/10/17 04:01:08;;;;;;;8.00;5.20;;;;;;;-1.85;100.00;97892.64;110124;1243;69076;-61
2023/10/17 04:03:38;;;;;;;5.90;5.10;;;;;;;-1.85;100.00;97894.17;110150;1244;60487;-59
2023/10/17 04:08:56;;;;;;;8.70;5.20;;;;;;;-1.83;100.00;97894.65;110143;1243;72247;-58
2023/10/17 04:11:27;;;;;;;5.80;4.70;;;;;;;-1.86;100.00;97892.13;110188;1243;69855;-60
2023/10/17 04:14:01;;;;;;;8.20;4.90;;;;;;;-1.88;100.00;97902.61;110117;1244;68674;-58
2023/10/17 04:16:38;;;;;;;6.80;4.20;;;;;;;-1.90;100.00;97903.13;110113;1244;60541;-60
2023/10/17 04:19:18;;;;;;;5.30;4.10;;;;;;;-1.89;100.00;97904.16;110133;1244;60463;-60
2023/10/17 04:22:01;;;;;;;5.70;4.30;;;;;;;-1.89;100.00;97908.27;110131;1243;72597;-59
2023/10/17 04:24:48;;;;;;;5.40;4.20;;;;;;;-1.90;100.00;97907.05;110221;1242;69124;-60
2023/10/17 04:27:22;;;;;;;5.30;3.70;;;;;;;-1.91;100.00;97903.31;110146;1244;69022;-59
2023/10/17 04:29:56;;;;;;;7.50;4.50;;;;;;;-1.92;100.00;97897.36;109971;1247;60476;-59
2023/10/17 04:32:38;;;;;;;5.70;4.20;;;;;;;-1.92;100.00;97902.31;110140;1243;60477;-59
2023/10/17 04:35:07;;;;;;;4.50;4.00;;;;;;;-1.90;100.00;97901.26;110196;1244;72211;-59
2023/10/17 04:37:44;;;;;;;;;;;;;;;-1.91;100.00;97902.97;110124;1243;69874;-58
2023/10/17 04:40:37;;;;;;;8.80;6.00;;;;;;;-1.92;100.00;97907.96;110132;1244;68370;-60
2023/10/17 04:43:44;;;;;;;8.90;5.90;;;;;;;-1.92;100.00;97910.69;109964;1247;60549;-60
2023/10/17 04:46:01;;;;;;;8.80;6.30;;;;;;;-1.94;100.00;97905.41;110139;1244;60489;-60
2023/10/17 04:48:35;;;;;;;7.60;5.30;;;;;;;-1.94;100.00;97901.14;110150;1244;72004;-60
2023/10/17 04:54:22;;;;;;;10.00;5.60;;;;;;;-1.96;100.00;97903.23;109986;1244;68339;-60
2023/10/17 04:56:55;;;;;;;10.30;6.40;;;;;;;-1.95;100.00;97906.80;110135;1241;60501;-61
2023/10/17 06:17:47;;;;;;;21.30;15.50;;;;;;;1.20;100.00;97969.13;110125;1244;68226;-60
2023/10/17 06:24:05;;;;;;;19.00;15.30;;;;;;;1.55;100.00;97967.13;110146;1244;60508;-60
2023/10/17 06:34:23;;;;;;;19.90;14.70;;;;;;;3.85;99.07;97962.44;110123;1243;60440;-61
2023/10/17 06:36:59;;;;;;;25.80;19.90;;;;;;;4.37;95.58;97962.53;110117;1244;60514;-61
2023/10/17 06:39:45;;;;;;;20.60;18.30;;;;;;;4.86;99.46;97967.48;110168;1244;72087;-61
2023/10/17 06:47:47;;;;;;;18.40;13.40;;;;;;;5.84;85.64;97972.44;110172;1244;60551;-61
2023/10/17 06:51:28;;;;;;;20.30;12.50;;;;;;;6.15;86.37;97973.63;110147;1244;60441;-61
2023/10/17 06:53:11;;;;;;;15.70;11.10;;;;;;;6.69;88.44;97975.27;110204;1244;72100;-62
2023/10/17 06:55:44;;;;;;;13.60;10.80;;;;;;;6.86;80.90;97975.13;110190;1245;69912;-62
2023/10/17 06:58:21;;;;;;;14.10;12.30;;;;;;;7.26;80.43;97974.02;110179;1245;69818;-62
2023/10/17 07:00:53;;;;;;;18.00;12.30;;;;;;;7.34;80.72;97971.35;110175;1243;60552;-63
2023/10/17 07:03:26;;;;;;;13.20;11.80;;;;;;;7.72;79.57;97969.23;110200;1244;60487;-63
2023/10/17 07:06:24;;;;;;;18.50;10.90;;;;;;;7.99;76.12;97969.19;110144;1244;72551;-61
2023/10/17 07:08:51;;;;;;;15.90;10.90;;;;;;;8.25;75.04;97968.68;110199;1245;69320;-61
2023/10/17 07:16:45;;;;;;;10.80;8.30;;;;;;;9.99;72.21;97959.27;110150;1242;60545;-62
2023/10/17 07:24:35;;;;;;;8.40;6.80;;;;;;;10.12;66.97;97953.92;110132;1243;69898;-61
2023/10/17 07:27:19;;;;;;;8.40;5.80;;;;;;;10.42;65.69;97949.30;110149;1241;60553;-62
2023/10/17 07:30:01;;;;;;;6.90;5.30;;;;;;;10.97;63.65;97947.99;110150;1244;60747;-62
2023/10/17 07:32:44;;;;;;;8.00;5.60;;;;;;;11.27;61.58;97943.02;110139;1246;72690;-62
2023/10/17 07:35:24;;;;;;;4.40;3.50;;;;;;;12.04;66.26;97939.83;110141;1244;69351;-61
2023/10/17 07:37:55;;;;;;;5.60;3.90;;;;;;;12.38;60.87;97940.94;109854;1245;68573;-62
2023/10/17 07:40:31;;;;;;;4.80;3.10;;;;;;;12.10;54.68;97936.61;110139;1242;60551;-62
2023/10/17 07:43:01;;;;;;;5.40;4.70;;;;;;;12.51;56.88;97940.16;110129;1244;60505;-60
2023/10/17 07:45:38;;;;;;;5.10;4.30;;;;;;;12.81;57.78;97941.30;110088;1241;72495;-62
2023/10/17 07:48:22;;;;;;;4.80;3.50;;;;;;;12.48;53.38;97937.23;110165;1243;69637;-62
2023/10/17 07:50:54;;;;;;;3.90;3.30;;;;;;;12.11;54.80;97937.63;110146;1242;68981;-62
2023/10/17 07:53:26;;;;;;;4.40;3.10;;;;;;;12.75;58.20;97941.38;109841;1247;60454;-62
2023/10/17 07:56:04;;;;;;;4.40;3.20;;;;;;;13.29;57.57;97944.37;110147;1244;60439;-62
2023/10/17 07:58:41;;;;;;;3.70;2.90;;;;;;;13.47;53.23;97944.42;110140;1252;72110;-62
2023/10/17 08:01:16;;;;;;;4.40;3.40;;;;;;;13.67;53.40;97939.91;110128;1245;68991;-62
2023/10/17 08:03:57;;;;;;;4.60;2.90;;;;;;;14.23;55.47;97936.80;110101;1243;68529;-60
2023/10/17 08:06:29;;;;;;;4.00;3.10;;;;;;;14.18;52.43;97936.30;110079;1245;60500;-61
2023/10/17 08:09:00;;;;;;;7.00;3.90;;;;;;;13.94;50.63;97931.86;110083;1246;60510;-59
2023/10/17 08:11:36;;;;;;;4.40;3.60;;;;;;;13.60;51.80;97936.98;110121;1242;71559;-61
2023/10/17 08:14:09;;;;;;;5.20;3.50;;;;;;;13.62;51.69;97933.70;110134;1244;68444;-61
2023/10/17 08:16:43;;;;;;;3.90;3.20;;;;;;;13.39;52.06;97935.92;110070;1244;69895;-62
2023/10/17 08:19:13;;;;;;;3.50;2.70;;;;;;;13.67;52.01;97926.61;110107;1245;60438;-61
2023/10/17 08:24:51;;;;;;;4.20;3.40;;;;;;;13.98;52.10;97928.05;110156;1244;72222;-62
2023/10/17 08:29:57;;;;;;;5.40;3.30;;;;;;;13.95;51.25;97925.83;110159;1243;69261;-62
2023/10/17 08:35:08;;;;;;;4.70;3.30;;;;;;;13.86;52.00;97927.44;110141;1244;60444;-61
2023/10/17 08:37:44;;;;;;;4.70;3.40;;;;;;;13.87;51.82;97927.68;110195;1245;71264;-62
2023/10/17 08:40:59;;;;;;;3.30;2.60;;;;;;;14.31;50.82;97923.21;110128;1243;69243;-61
2023/10/17 08:43:14;;;;;;;3.50;2.60;;;;;;;14.75;50.90;97921.38;110128;1241;69132;-63
2023/10/17 08:45:54;;;;;;;3.80;2.50;;;;;;;15.10;49.75;97919.57;110228;1243;60573;-61
2023/10/17 08:48:24;;;;;;;8.50;2.90;;;;;;;15.16;49.66;97917.69;110201;1251;60490;-62
2023/10/17 08:50:56;;;;;;;6.10;3.10;;;;;;;15.33;48.10;97919.17;110211;1245;71323;-63
2023/10/17 08:53:30;;;;;;;3.30;2.50;;;;;;;15.06;47.78;97913.88;110319;1245;69080;-62
2023/10/17 08:56:02;;;;;;;4.20;3.40;;;;;;;15.30;48.05;97910.17;110142;1246;68994;-63
2023/10/17 08:58:33;;;;;;;4.10;2.90;;;;;;;14.98;48.10;97910.38;110180;1244;60536;-63
2023/10/17 09:01:17;;;;;;;4.40;3.30;;;;;;;14.99;47.71;97907.80;110174;1246;60576;-62
2023/10/17 09:03:48;;;;;;;3.70;2.80;;;;;;;14.37;48.43;97905.55;110189;1243;71618;-62
2023/10/17 09:11:34;;;;;;;3.90;2.70;;;;;;;14.99;48.71;97906.41;110139;1244;60553;-63
2023/10/17 09:17:28;;;;;;;3.50;2.30;;;;;;;15.81;46.33;97903.40;109511;1249;72248;-62
2023/10/17 09:20:11;;;;;;;5.80;3.40;;;;;;;16.12;46.45;97897.89;110093;1245;68529;-60
2023/10/17 09:22:40;;;;;;;4.70;3.70;;;;;;;16.20;45.76;97897.88;110062;1248;69282;-62
2023/10/17 09:25:22;;;;;;;;;;;;;;;15.87;46.02;97899.91;110147;1245;60441;-63
2023/10/17 09:27:53;;;;;;;4.80;3.00;;;;;;;15.47;45.68;97898.15;110119;1241;60518;-63
2023/10/17 09:30:26;;;;;;;4.20;3.10;;;;;;;15.01;46.94;97903.44;110102;1245;72787;-61
2023/10/17 09:32:56;;;;;;;4.40;3.40;;;;;;;14.90;46.10;97899.50;110112;1245;68543;-61
2023/10/17 09:35:30;;;;;;;3.10;2.50;;;;;;;14.64;45.94;97896.71;110092;1246;68939;-61
2023/10/17 09:38:07;;;;;;;5.40;2.80;;;;;;;14.05;47.69;97891.58;110088;1245;60873;-62
2023/10/17 09:40:38;;;;;;;3.30;2.40;;;;;;;14.13;47.15;97891.68;110120;1241;60512;-62
2023/10/17 09:43:18;;;;;;;3.60;2.40;;;;;;;14.40;46.87;97892.28;110105;1246;72054;-61
2023/10/17 09:45:52;;;;;;;4.20;2.40;;;;;;;14.53;46.97;97888.82;110061;1246;69824;-62
2023/10/17 09:48:30;;;;;;;4.10;2.60;;;;;;;14.39;46.13;97888.31;110083;1242;69212;-62
2023/10/17 09:51:02;;;;;;;4.50;3.00;;;;;;;14.86;46.67;97885.92;110074;1246;60543;-61
2023/10/17 09:53:34;;;;;;;5.10;3.40;;;;;;;15.21;45.79;97877.21;110134;1245;60902;-62
2023/10/17 09:56:15;;;;;;;3.40;2.70;;;;;;;15.10;44.89;97876.52;110157;1246;72203;-62
2023/10/17 09:58:53;;;;;;;4.00;3.00;;;;;;;15.02;45.07;97872.54;110079;1244;69981;-61
2023/10/17 10:01:26;;;;;;;3.40;2.60;;;;;;;15.22;45.13;97868.35;110066;1246;69287;-61
2023/10/17 10:04:01;;;;;;;2.80;2.20;;;;;;;15.82;44.60;97867.41;110065;1245;60481;-62
2023/10/17 10:06:32;;;;;;;3.60;2.20;;;;;;;16.70;43.36;97866.02;110099;1245;60553;-62
2023/10/17 10:09:13;;;;;;;3.20;2.00;;;;;;;17.41;43.73;97861.05;110165;1245;72798;-62
2023/10/17 10:11:52;;;;;;;3.90;2.20;;;;;;;17.52;40.19;97858.42;110109;1246;69677;-61
2023/10/17 10:14:27;;;;;;;3.60;2.60;;;;;;;17.68;41.75;97851.60;110100;1245;69096;-61
2023/10/17 10:16:59;;;;;;;4.50;3.30;;;;;;;17.70;40.25;97841.80;110116;1245;60479;-60
2023/10/17 10:19:41;;;;;;;4.20;2.50;;;;;;;17.35;40.29;97833.55;110136;1241;60600;-60
2023/10/17 10:22:16;;;;;;;4.30;2.60;;;;;;;17.30;41.11;97834.62;110126;1246;71223;-62
2023/10/17 10:24:47;;;;;;;3.50;2.40;;;;;;;17.28;40.25;97830.20;110064;1242;70138;-62
2023/10/17 10:27:24;;;;;;;3.20;2.60;;;;;;;18.09;40.50;97825.99;110113;1244;69201;-62
2023/10/17 10:30:17;;;;;;;3.60;2.50;;;;;;;18.33;39.35;97819.10;110078;1241;60522;-62
2023/10/17 10:32:50;;;;;;;3.30;2.40;;;;;;;18.32;38.14;97814.64;110120;1241;60533;-61
2023/10/17 10:35:20;;;;;;;3.40;1.90;;;;;;;18.62;38.56;97810.66;110105;1246;72222;-62
2023/10/17 10:37:53;;;;;;;3.30;2.50;;;;;;;18.94;36.75;97807.95;110115;1245;68635;-62
2023/10/17 10:40:24;;;;;;;4.10;3.10;;;;;;;19.24;37.05;97803.10;110101;1246;69882;-63
2023/10/17 10:42:59;;;;;;;4.90;2.80;;;;;;;19.62;36.40;97805.89;110100;1241;60526;-61
2023/10/17 10:45:52;;;;;;;3.60;1.90;;;;;;;19.69;36.18;97804.91;110105;1245;60460;-62
2023/10/17 10:48:24;;;;;;;3.80;1.80;;;;;;;19.49;35.79;97801.08;110103;1242;72863;-61
2023/10/17 10:51:03;;;;;;;3.20;2.10;;;;;;;20.02;34.45;97799.14;110107;1245;68306;-62
2023/10/17 10:53:36;;;;;;;3.50;1.70;;;;;;;20.22;34.90;97788.70;110079;1245;69594;-61
2023/10/17 10:56:11;;;;;;;3.60;1.90;;;;;;;21.07;35.30;97784.98;110063;1242;60472;-61
2023/10/17 10:58:47;;;;;;;2.80;1.70;;;;;;;21.45;33.31;97781.84;110076;1242;60498;-61
2023/10/17 11:01:23;;;;;;;5.60;2.10;;;;;;;21.41;31.87;97776.86;110111;1245;72461;-62
2023/10/17 11:03:54;;;;;;;2.60;1.50;;;;;;;21.44;32.67;97774.58;110106;1246;69731;-61
2023/10/17 11:06:27;;;;;;;3.70;1.80;;;;;;;22.20;33.12;97772.02;110063;1245;69529;-61
2023/10/17 11:08:56;;;;;;;2.90;2.10;;;;;;;21.75;31.01;97769.33;110084;1249;60508;-60
2023/10/17 11:11:26;;;;;;;3.00;1.80;;;;;;;22.71;32.62;97765.60;110065;1246;60436;-60
2023/10/17 11:13:56;;;;;;;3.80;2.40;;;;;;;23.21;30.92;97762.32;110049;1242;71536;-60
2023/10/17 11:16:26;;;;;;;4.00;2.30;;;;;;;23.28;29.81;97765.23;110054;1245;68420;-60
2023/10/17 11:18:57;;;;;;;3.90;2.40;;;;;;;22.83;29.47;97766.96;110083;1245;69312;-61
2023/10/17 11:21:28;;;;;;;4.60;2.80;;;;;;;21.93;28.80;97761.21;110063;1246;60569;-61
2023/10/17 11:24:00;;;;;;;3.40;2.70;;;;;;;22.31;29.67;97759.85;110089;1243;60580;-62
2023/10/17 11:26:33;;;;;;;5.10;2.20;;;;;;;21.92;29.65;97753.51;110061;1241;71475;-61
2023/10/17 11:29:03;;;;;;;3.30;2.20;;;;;;;22.51;30.28;97753.83;110066;1245;69812;-60
2023/10/17 11:31:34;;;;;;;4.40;2.60;;;;;;;23.31;29.45;97747.36;110105;1246;69180;-61
2023/10/17 11:34:14;;;;;;;3.70;2.60;;;;;;;23.09;28.87;97751.11;110048;1248;60560;-60
2023/10/17 11:36:47;;;;;;;4.50;2.60;;;;;;;22.65;28.62;97751.21;110068;1245;60505;-60
2023/10/17 11:39:20;;;;;;;4.50;3.00;;;;;;;22.50;28.93;97752.66;110084;1245;72240;-60
2023/10/17 11:41:54;;;;;;;3.80;2.50;;;;;;;22.16;28.78;97748.66;110063;1245;68663;-60
2023/10/17 11:44:31;;;;;;;3.80;2.60;;;;;;;22.49;29.10;97748.61;110024;1241;68927;-60
2023/10/17 11:47:22;;;;;;;3.60;2.70;;;;;;;22.67;28.91;97742.04;110085;1245;60553;-60
2023/10/17 11:49:52;;;;;;;3.50;2.00;;;;;;;22.24;28.24;97742.38;110062;1245;60519;-61
2023/10/17 11:52:24;;;;;;;4.00;1.90;;;;;;;21.35;28.89;97733.73;110074;1244;72426;-62
2023/10/17 11:54:57;;;;;;;3.00;1.80;;;;;;;21.02;29.78;97733.78;110075;1245;69869;-61
2023/10/17 11:57:31;;;;;;;3.00;2.20;;;;;;;20.23;29.99;97729.51;110058;1245;69881;-61
2023/10/17 12:00:19;;;;;;;2.50;1.60;;;;;;;20.07;30.74;97726.11;110093;1241;60497;-61
2023/10/17 12:02:49;;;;;;;2.50;1.80;;;;;;;20.03;30.03;97722.83;110109;1245;60487;-60
2023/10/17 12:05:19;;;;;;;3.60;2.00;;;;;;;19.82;30.06;97722.65;110064;1242;72341;-61
2023/10/17 12:07:54;;;;;;;2.90;1.90;;;;;;;20.03;29.66;97721.88;110065;1245;69477;-61
2023/10/17 12:10:24;;;;;;;3.60;1.90;;;;;;;20.23;29.61;97718.90;110032;1245;69892;-61
2023/10/17 12:13:04;;;;;;;3.80;1.70;;;;;;;20.38;29.77;97714.94;110024;1244;60493;-60
2023/10/17 12:15:33;;;;;;;4.00;2.00;;;;;;;20.88;28.33;97709.89;110064;1244;60504;-61
2023/10/17 12:18:04;;;;;;;2.60;1.70;;;;;;;21.46;28.30;97711.86;110007;1246;71345;-61
2023/10/17 12:20:33;;;;;;;3.40;1.60;;;;;;;21.83;27.80;97714.28;110053;1246;69250;-62
2023/10/17 12:23:03;;;;;;;2.30;1.50;;;;;;;22.41;27.94;97712.77;110064;1244;69899;-61
2023/10/17 12:25:34;;;;;;;4.10;1.60;;;;;;;22.47;27.07;97709.95;110058;1241;60547;-61
2023/10/17 12:28:06;;;;;;;2.60;1.70;;;;;;;22.50;27.12;97707.45;110050;1244;60490;-61
2023/10/17 12:30:35;;;;;;;2.30;1.40;;;;;;;23.48;26.42;97709.48;110059;1244;71446;-61
2023/10/17 12:33:06;;;;;;;2.40;1.60;;;;;;;24.28;27.00;97705.72;110065;1242;69860;-60
2023/10/17 12:35:38;;;;;;;2.70;1.60;;;;;;;24.77;27.16;97701.14;110103;1244;69374;-61
2023/10/17 12:38:24;;;;;;;3.40;1.90;;;;;;;24.32;24.35;97696.06;110030;1244;60909;-61
2023/10/17 12:40:53;;;;;;;3.70;1.50;;;;;;;24.46;24.54;97697.95;110062;1244;60556;-62
2023/10/17 12:43:27;;;;;;;2.70;1.50;;;;;;;24.81;24.55;97691.70;110054;1241;73306;-60
2023/10/17 12:45:56;;;;;;;2.80;1.70;;;;;;;25.45;25.82;97683.78;110039;1242;69230;-62
2023/10/17 12:48:26;;;;;;;2.90;1.70;;;;;;;24.98;24.03;97685.27;110042;1244;69917;-60
2023/10/17 12:50:55;;;;;;;3.70;1.80;;;;;;;24.51;24.58;97678.48;110040;1241;60554;-60
2023/10/17 12:53:26;;;;;;;2.50;1.50;;;;;;;24.77;24.87;97676.60;110034;1245;60489;-60
2023/10/17 12:55:56;;;;;;;3.10;1.80;;;;;;;24.70;24.69;97675.86;110080;1251;72764;-60
2023/10/17 12:58:25;;;;;;;3.20;1.90;;;;;;;24.76;24.27;97673.13;110039;1241;68504;-61
2023/10/17 13:00:58;;;;;;;2.70;1.50;;;;;;;23.81;24.07;97672.45;110045;1244;69866;-61
2023/10/17 13:03:28;;;;;;;2.60;1.80;;;;;;;22.97;25.10;97671.48;110041;1241;60498;-60
2023/10/17 13:05:58;;;;;;;2.50;1.60;;;;;;;23.01;25.00;97668.48;110058;1242;60518;-62
2023/10/17 13:08:28;;;;;;;1.90;1.40;;;;;;;22.86;24.76;97671.49;110044;1244;72197;-61
2023/10/17 13:10:58;;;;;;;2.50;1.50;;;;;;;22.92;25.20;97662.88;110058;1242;69226;-62
2023/10/17 13:13:30;;;;;;;3.30;2.40;;;;;;;23.12;25.42;97668.41;110056;1245;69172;-60
2023/10/17 13:15:59;;;;;;;;;;;;;;;23.40;24.95;97672.44;110046;1244;60445;-62
2023/10/17 13:18:29;;;;;;;2.50;1.50;;;;;;;22.70;25.59;97664.56;110067;1246;60538;-62
2023/10/17 13:21:12;;;;;;;3.20;1.90;;;;;;;22.56;25.83;97664.10;110107;1245;72891;-60
2023/10/17 13:23:44;;;;;;;2.60;1.80;;;;;;;22.68;25.80;97659.15;110081;1244;69680;-61
2023/10/17 13:26:15;;;;;;;3.10;1.80;;;;;;;22.11;25.78;97654.55;110062;1242;69927;-60
2023/10/17 13:28:44;;;;;;;2.40;1.90;;;;;;;21.43;26.76;97653.90;110031;1243;60551;-60
2023/10/17 13:31:16;;;;;;;2.90;2.10;;;;;;;21.58;27.25;97655.02;110090;1244;60491;-60
2023/10/17 13:33:45;;;;;;;4.70;2.40;;;;;;;21.41;26.91;97657.19;110064;1250;72985;-60
2023/10/17 13:36:20;;;;;;;3.50;2.00;;;;;;;21.35;26.78;97650.24;110052;1244;69834;-60
2023/10/17 13:38:49;;;;;;;2.20;1.70;;;;;;;21.69;27.29;97647.23;110083;1242;68854;-60
2023/10/17 13:41:20;;;;;;;4.10;2.80;;;;;;;21.55;27.04;97641.34;110035;1244;60502;-60
2023/10/17 13:43:49;;;;;;;3.10;2.00;;;;;;;22.16;26.33;97643.19;110046;1244;60520;-60
2023/10/17 13:46:18;;;;;;;4.30;2.50;;;;;;;22.55;25.70;97640.96;110053;1241;72677;-60
2023/10/17 13:48:49;;;;;;;;;;;;;;;22.61;25.38;97647.61;110035;1246;69168;-60
2023/10/17 13:51:19;;;;;;;2.70;1.90;;;;;;;22.85;25.00;97642.96;110062;1244;69884;-60
2023/10/17 13:53:50;;;;;;;2.70;1.60;;;;;;;23.00;24.85;97643.38;110030;1244;60456;-60
2023/10/17 13:56:20;;;;;;;3.10;2.20;;;;;;;22.63;24.53;97639.98;110082;1241;60502;-60
2023/10/17 13:58:50;;;;;;;4.20;2.40;;;;;;;22.32;24.72;97638.27;110048;1245;71561;-60
2023/10/17 14:01:41;;;;;;;3.70;2.00;;;;;;;22.10;25.10;97632.93;110059;1251;69847;-62
2023/10/17 14:04:10;;;;;;;3.80;2.20;;;;;;;21.37;25.40;97629.45;110052;1244;69873;-60
2023/10/17 14:06:42;;;;;;;3.60;2.20;;;;;;;21.03;25.45;97631.89;110040;1244;60537;-61
2023/10/17 14:09:14;;;;;;;2.90;1.80;;;;;;;20.86;24.71;97625.78;110100;1242;60903;-61
2023/10/17 14:11:48;;;;;;;3.10;1.40;;;;;;;21.09;25.07;97625.10;110062;1245;72675;-61
2023/10/17 14:14:18;;;;;;;3.00;1.70;;;;;;;21.06;25.43;97624.40;110067;1241;69168;-61
2023/10/17 14:16:50;;;;;;;2.90;1.60;;;;;;;19.98;26.82;97627.09;110032;1244;68232;-60
2023/10/17 14:25:06;;;;;;;3.20;1.60;;;;;;;20.03;26.47;97625.17;109898;1242;72141;-61